createdAt,value
2022-09-17T00:01:39.847Z,1.27
2022-09-17T00:04:06.825Z,1.40
2022-09-17T00:06:36.042Z,1.20
2022-09-17T00:09:05.833Z,1.20
2022-09-17T00:11:35.700Z,1.10
2022-09-17T00:14:04.889Z,1.37
2022-09-17T00:16:38.759Z,1.00
2022-09-17T00:19:09.159Z,0.97
2022-09-17T00:21:36.498Z,1.40
2022-09-17T00:24:06.729Z,1.37
2022-09-17T00:26:34.942Z,1.37
2022-09-17T00:29:02.135Z,1.80
2022-09-17T00:31:30.792Z,1.30
2022-09-17T00:33:59.398Z,1.10
2022-09-17T00:36:26.714Z,1.17
2022-09-17T00:38:56.225Z,1.50
2022-09-17T00:41:27.238Z,1.40
2022-09-17T00:43:57.971Z,1.63
2022-09-17T00:46:32.590Z,1.47
2022-09-17T00:49:03.641Z,1.27
2022-09-17T00:51:36.728Z,1.57
2022-09-17T00:54:07.027Z,1.40
2022-09-17T00:56:37.491Z,1.40
2022-09-17T00:59:05.774Z,1.40
2022-09-17T01:01:33.545Z,1.40
2022-09-17T01:04:00.515Z,1.10
2022-09-17T01:06:35.768Z,1.27
2022-09-17T01:09:28.672Z,1.47
2022-09-17T01:12:20.592Z,1.53
2022-09-17T01:15:02.279Z,1.33
2022-09-17T01:17:42.641Z,1.27
2022-09-17T01:20:53.503Z,1.10
2022-09-17T01:23:55.742Z,1.50
2022-09-17T01:27:03.300Z,1.63
2022-09-17T01:29:55.350Z,1.40
2022-09-17T01:32:32.136Z,1.50
2022-09-17T01:35:03.805Z,1.90
2022-09-17T01:37:34.709Z,1.27
2022-09-17T01:40:09.116Z,1.40
2022-09-17T01:42:45.386Z,1.53
2022-09-17T01:45:18.780Z,1.80
2022-09-17T01:47:51.000Z,1.80
2022-09-17T01:50:23.533Z,1.53
2022-09-17T01:52:54.881Z,1.30
2022-09-17T01:55:25.930Z,1.60
2022-09-17T01:57:58.056Z,1.50
2022-09-17T02:00:25.191Z,1.63
2022-09-17T02:03:00.703Z,2.37
2022-09-17T02:05:34.427Z,1.80
2022-09-17T02:08:09.539Z,1.53
2022-09-17T02:10:41.427Z,1.50
2022-09-17T02:13:12.724Z,1.50
2022-09-17T02:15:48.462Z,1.60
2022-09-17T02:18:25.253Z,1.63
2022-09-17T02:21:02.118Z,1.47
2022-09-17T02:23:35.765Z,1.60
2022-09-17T02:26:09.568Z,1.43
2022-09-17T02:28:43.914Z,1.80
2022-09-17T02:31:11.824Z,1.50
2022-09-17T02:33:43.679Z,1.50
2022-09-17T02:36:10.697Z,2.10
2022-09-17T02:38:41.599Z,1.87
2022-09-17T02:41:16.767Z,1.80
2022-09-17T02:43:58.694Z,1.70
2022-09-17T02:46:50.497Z,1.60
2022-09-17T02:49:39.448Z,1.60
2022-09-17T02:52:17.924Z,1.40
2022-09-17T02:54:55.375Z,1.77
2022-09-17T02:57:29.989Z,1.93
2022-09-17T03:00:05.028Z,1.50
2022-09-17T03:02:37.260Z,1.60
2022-09-17T03:05:08.497Z,1.83
2022-09-17T03:07:35.515Z,1.70
2022-09-17T03:10:02.425Z,2.00
2022-09-17T03:12:29.837Z,1.20
2022-09-17T03:14:57.029Z,1.50
2022-09-17T03:17:24.124Z,1.77
2022-09-17T03:19:51.008Z,1.80
2022-09-17T03:22:19.227Z,1.70
2022-09-17T03:24:46.517Z,1.87
2022-09-17T03:27:13.438Z,1.77
2022-09-17T03:29:40.461Z,1.70
2022-09-17T03:32:08.669Z,1.83
2022-09-17T03:34:35.695Z,1.70
2022-09-17T03:37:02.815Z,1.23
2022-09-17T03:39:31.359Z,1.67
2022-09-17T03:41:58.233Z,2.03
2022-09-17T03:44:25.137Z,1.67
2022-09-17T03:46:52.429Z,1.60
2022-09-17T03:49:19.507Z,1.70
2022-09-17T03:51:46.407Z,1.63
2022-09-17T03:54:13.379Z,1.37
2022-09-17T03:56:41.685Z,1.87
2022-09-17T03:59:08.614Z,2.17
2022-09-17T04:01:36.355Z,1.73
2022-09-17T04:04:03.751Z,1.80
2022-09-17T04:06:30.899Z,3.53
2022-09-17T04:08:57.829Z,1.60
2022-09-17T04:11:24.798Z,1.83
2022-09-17T04:13:53.136Z,1.70
2022-09-17T04:16:20.136Z,1.60
2022-09-17T04:18:47.431Z,1.50
2022-09-17T04:21:14.409Z,1.77
2022-09-17T04:23:41.345Z,1.27
2022-09-17T04:26:08.253Z,1.60
2022-09-17T04:28:35.274Z,1.60
2022-09-17T04:31:03.592Z,1.40
2022-09-17T04:33:30.534Z,2.30
2022-09-17T04:35:57.530Z,1.53
2022-09-17T04:38:24.692Z,1.73
2022-09-17T04:40:51.925Z,1.53
2022-09-17T04:43:18.950Z,1.43
2022-09-17T04:45:46.889Z,1.70
2022-09-17T04:48:15.328Z,1.53
2022-09-17T04:50:42.552Z,1.77
2022-09-17T04:53:09.644Z,1.50
2022-09-17T04:55:36.573Z,1.40
2022-09-17T04:58:04.491Z,1.60
2022-09-17T05:00:31.473Z,1.77
2022-09-17T05:02:58.480Z,1.60
2022-09-17T05:05:27.022Z,1.37
2022-09-17T05:07:53.866Z,1.83
2022-09-17T05:10:22.589Z,1.53
2022-09-17T05:12:50.194Z,1.90
2022-09-17T05:15:17.615Z,2.47
2022-09-17T05:17:44.676Z,1.90
2022-09-17T05:20:12.224Z,2.27
2022-09-17T05:22:44.022Z,1.90
2022-09-17T05:25:11.651Z,2.57
2022-09-17T05:27:40.550Z,2.50
2022-09-17T05:30:09.316Z,2.67
2022-09-17T05:32:36.822Z,2.10
2022-09-17T05:35:06.036Z,2.63
2022-09-17T05:37:33.364Z,1.90
2022-09-17T05:40:02.462Z,2.07
2022-09-17T05:42:29.574Z,2.00
2022-09-17T05:44:56.486Z,2.80
2022-09-17T05:47:24.494Z,2.47
2022-09-17T05:49:51.361Z,3.20
2022-09-17T05:52:19.278Z,1.77
2022-09-17T05:54:46.698Z,1.93
2022-09-17T05:57:16.042Z,2.10
2022-09-17T05:59:43.113Z,2.20
2022-09-17T06:02:13.386Z,1.83
2022-09-17T06:04:40.507Z,2.10
2022-09-17T06:07:09.031Z,3.30
2022-09-17T06:09:37.487Z,2.00
2022-09-17T06:12:05.727Z,2.00
2022-09-17T06:14:34.037Z,2.77
2022-09-17T06:17:01.040Z,3.00
2022-09-17T06:19:28.518Z,2.50
2022-09-17T06:21:55.690Z,2.20
2022-09-17T06:24:22.638Z,2.30
2022-09-17T06:26:49.549Z,2.50
2022-09-17T06:29:16.624Z,2.50
2022-09-17T06:31:45.137Z,2.50
2022-09-17T06:34:12.409Z,2.20
2022-09-17T06:36:39.359Z,3.00
2022-09-17T06:39:06.829Z,2.73
2022-09-17T06:41:33.893Z,2.53
2022-09-17T06:44:02.011Z,2.50
2022-09-17T06:46:31.021Z,2.90
2022-09-17T06:48:59.359Z,3.47
2022-09-17T06:51:26.554Z,2.40
2022-09-17T06:53:53.605Z,2.40
2022-09-17T06:56:20.508Z,3.50
2022-09-17T06:58:47.436Z,2.30
2022-09-17T07:01:15.069Z,2.83
2022-09-17T07:03:43.491Z,2.83
2022-09-17T07:06:12.673Z,3.47
2022-09-17T07:08:39.725Z,3.10
2022-09-17T07:11:08.028Z,2.73
2022-09-17T07:13:35.742Z,3.00
2022-09-17T07:16:05.436Z,2.80
2022-09-17T07:18:32.863Z,3.00
2022-09-17T07:21:01.715Z,2.90
2022-09-17T07:23:32.214Z,3.83
2022-09-17T07:26:03.459Z,2.60
2022-09-17T07:28:30.812Z,2.80
2022-09-17T07:30:57.948Z,2.87
2022-09-17T07:33:27.943Z,2.63
2022-09-17T07:35:55.290Z,3.00
2022-09-17T07:38:22.989Z,2.40
2022-09-17T07:40:59.340Z,2.67
2022-09-17T07:43:27.459Z,3.33
2022-09-17T07:45:57.149Z,3.37
2022-09-17T07:48:24.317Z,2.57
2022-09-17T07:50:51.309Z,2.37
2022-09-17T07:53:18.853Z,4.40
2022-09-17T07:55:52.429Z,2.20
2022-09-17T07:58:21.156Z,2.40
2022-09-17T08:00:48.725Z,2.77
2022-09-17T08:03:16.664Z,3.03
2022-09-17T08:05:43.821Z,3.20
2022-09-17T08:08:10.696Z,3.50
2022-09-17T08:10:37.739Z,2.30
2022-09-17T08:13:04.797Z,2.87
2022-09-17T08:15:34.661Z,2.37
2022-09-17T08:18:01.603Z,2.70
2022-09-17T08:20:28.597Z,2.47
2022-09-17T08:23:00.360Z,3.00
2022-09-17T08:25:27.591Z,2.80
2022-09-17T08:27:55.658Z,2.47
2022-09-17T08:30:23.009Z,2.40
2022-09-17T08:32:51.479Z,2.70
2022-09-17T08:35:19.090Z,2.53
2022-09-17T08:37:47.318Z,2.40
2022-09-17T08:40:21.344Z,2.43
2022-09-17T08:42:57.303Z,2.67
2022-09-17T08:45:24.419Z,2.63
2022-09-17T08:48:01.438Z,2.70
2022-09-17T08:50:32.566Z,2.73
2022-09-17T08:53:36.462Z,3.10
2022-09-17T08:56:11.672Z,2.50
2022-09-17T08:58:59.380Z,1.73
2022-09-17T09:01:36.926Z,2.13
2022-09-17T09:04:51.527Z,2.10
2022-09-17T09:07:24.106Z,2.27
2022-09-17T09:10:00.272Z,1.90
2022-09-17T09:12:32.188Z,2.30
2022-09-17T09:15:02.917Z,2.10
2022-09-17T09:17:38.401Z,1.90
2022-09-17T09:20:17.639Z,1.60
2022-09-17T09:22:49.080Z,2.03
2022-09-17T09:25:26.880Z,2.07
2022-09-17T09:28:14.574Z,1.40
2022-09-17T09:30:58.589Z,1.93
2022-09-17T09:33:30.959Z,1.20
2022-09-17T09:35:59.735Z,1.60
2022-09-17T09:38:34.364Z,1.40
2022-09-17T09:41:10.513Z,1.50
2022-09-17T09:44:02.888Z,2.10
2022-09-17T09:47:02.170Z,1.50
2022-09-17T09:49:53.474Z,1.40
2022-09-17T09:52:41.224Z,1.93
2022-09-17T09:55:38.885Z,1.50
2022-09-17T09:58:19.600Z,1.67
2022-09-17T10:00:47.717Z,1.53
2022-09-17T10:03:20.031Z,1.80
2022-09-17T10:05:55.299Z,1.40
2022-09-17T10:08:24.418Z,1.83
2022-09-17T10:11:00.870Z,1.30
2022-09-17T10:13:30.480Z,2.00
2022-09-17T10:15:57.996Z,1.60
2022-09-17T10:18:26.002Z,1.80
2022-09-17T10:20:59.293Z,1.50
2022-09-17T10:23:30.108Z,1.50
2022-09-17T10:25:57.729Z,2.00
2022-09-17T10:28:47.843Z,1.80
2022-09-17T10:31:15.059Z,2.57
2022-09-17T10:33:53.766Z,2.43
2022-09-17T10:36:40.261Z,1.83
2022-09-17T10:39:34.082Z,1.77
2022-09-17T10:42:12.306Z,2.57
2022-09-17T10:44:51.781Z,1.83
2022-09-17T10:47:24.597Z,1.80
2022-09-17T10:49:56.862Z,1.77
2022-09-17T10:52:27.391Z,1.60
2022-09-17T10:55:23.727Z,1.90
2022-09-17T10:58:09.101Z,2.20
2022-09-17T11:00:49.326Z,1.53
2022-09-17T11:04:04.752Z,1.70
2022-09-17T11:07:21.782Z,1.93
2022-09-17T11:09:57.275Z,2.03
2022-09-17T11:12:38.198Z,1.73
2022-09-17T11:15:23.962Z,1.40
2022-09-17T11:18:14.255Z,1.20
2022-09-17T11:21:03.522Z,1.40
2022-09-17T11:24:01.635Z,1.50
2022-09-17T11:26:36.501Z,1.33
2022-09-17T11:29:26.646Z,1.20
2022-09-17T11:32:01.834Z,2.20
2022-09-17T11:34:35.988Z,1.30
2022-09-17T11:37:11.169Z,1.03
2022-09-17T11:39:49.005Z,1.97
2022-09-17T11:42:22.205Z,1.50
2022-09-17T11:44:54.703Z,1.80
2022-09-17T11:47:26.354Z,2.00
2022-09-17T11:49:58.970Z,1.70
2022-09-17T11:52:32.128Z,1.10
2022-09-17T11:55:09.388Z,1.53
2022-09-17T11:57:40.369Z,1.53
2022-09-17T12:00:15.921Z,1.80
2022-09-17T12:02:52.020Z,1.37
2022-09-17T12:05:22.879Z,1.40
2022-09-17T12:07:57.739Z,1.30
2022-09-17T12:10:41.675Z,1.53
2022-09-17T12:13:20.709Z,1.20
2022-09-17T12:15:53.792Z,1.80
2022-09-17T12:18:32.904Z,1.30
2022-09-17T12:21:04.496Z,1.50
2022-09-17T12:23:39.053Z,1.10
2022-09-17T12:26:29.675Z,1.87
2022-09-17T12:29:05.623Z,1.30
2022-09-17T12:31:46.187Z,1.40
2022-09-17T12:34:31.833Z,1.70
2022-09-17T12:37:08.651Z,1.30
2022-09-17T12:39:55.863Z,1.50
2022-09-17T12:42:49.378Z,1.40
2022-09-17T12:45:50.479Z,2.00
2022-09-17T12:49:00.006Z,1.30
2022-09-17T12:51:47.673Z,1.00
2022-09-17T12:54:44.463Z,1.20
2022-09-17T12:57:29.415Z,1.20
2022-09-17T13:00:06.954Z,1.43
2022-09-17T13:02:41.283Z,1.13
2022-09-17T13:05:43.913Z,1.50
2022-09-17T13:09:07.531Z,1.67
2022-09-17T13:12:10.021Z,1.20
2022-09-17T13:15:07.320Z,1.53
2022-09-17T13:17:43.419Z,1.40
2022-09-17T13:20:19.285Z,1.40
2022-09-17T13:22:49.800Z,1.20
2022-09-17T13:25:19.371Z,1.33
2022-09-17T13:27:48.831Z,1.40
2022-09-17T13:30:17.249Z,1.70
2022-09-17T13:32:50.308Z,1.50
2022-09-17T13:35:51.505Z,1.40
2022-09-17T13:38:23.784Z,1.00
2022-09-17T13:40:51.982Z,1.27
2022-09-17T13:43:23.982Z,1.70
2022-09-17T13:46:11.338Z,1.60
2022-09-17T13:48:49.185Z,0.90
2022-09-17T13:51:52.335Z,1.00
2022-09-17T13:54:22.455Z,1.40
2022-09-17T13:57:18.860Z,1.50
2022-09-17T13:59:58.303Z,1.10
2022-09-17T14:02:35.273Z,1.00
2022-09-17T14:05:36.510Z,0.90
2022-09-17T14:08:30.529Z,1.20
2022-09-17T14:11:01.784Z,1.10
2022-09-17T14:13:44.901Z,1.60
2022-09-17T14:16:36.905Z,2.10
2022-09-17T14:19:22.877Z,0.90
2022-09-17T14:22:00.503Z,1.80
2022-09-17T14:24:36.659Z,1.60
2022-09-17T14:27:13.250Z,1.80
2022-09-17T14:30:15.874Z,1.70
2022-09-17T14:32:52.954Z,1.60
2022-09-17T14:35:26.684Z,2.27
2022-09-17T14:37:59.007Z,1.40
2022-09-17T14:40:28.795Z,1.47
2022-09-17T14:42:58.422Z,1.90
2022-09-17T14:45:29.975Z,2.30
2022-09-17T14:48:26.781Z,1.87
2022-09-17T14:50:54.065Z,1.50
2022-09-17T14:53:21.394Z,1.03
2022-09-17T14:55:51.057Z,1.27
2022-09-17T14:58:33.716Z,2.70
2022-09-17T15:01:01.139Z,1.60
2022-09-17T15:03:28.080Z,1.37
2022-09-17T15:05:55.257Z,1.50
2022-09-17T15:08:24.919Z,1.10
2022-09-17T15:10:57.227Z,1.43
2022-09-17T15:13:28.214Z,1.20
2022-09-17T15:16:02.342Z,1.10
2022-09-17T15:18:38.540Z,0.80
2022-09-17T15:21:23.568Z,0.93
2022-09-17T15:23:54.392Z,0.90
2022-09-17T15:26:27.752Z,1.23
2022-09-17T15:28:55.936Z,1.60
2022-09-17T15:31:23.772Z,1.20
2022-09-17T15:33:51.014Z,1.30
2022-09-17T15:36:22.230Z,1.50
2022-09-17T15:38:50.706Z,1.30
2022-09-17T15:41:30.536Z,1.30
2022-09-17T15:47:37.851Z,1.73
2022-09-17T15:50:17.197Z,1.20
2022-09-17T15:52:44.408Z,0.90
2022-09-17T15:55:35.537Z,0.83
2022-09-17T15:58:20.148Z,0.87
2022-09-17T16:00:47.614Z,0.90
2022-09-17T16:04:17.311Z,0.83
2022-09-17T16:06:51.352Z,2.10
2022-09-17T16:09:47.040Z,1.43
2022-09-17T16:12:19.733Z,0.90
2022-09-17T16:14:51.387Z,1.40
2022-09-17T16:17:42.257Z,1.47
2022-09-17T16:20:16.012Z,1.30
2022-09-17T16:22:44.097Z,1.60
2022-09-17T16:25:11.928Z,1.60
2022-09-17T16:27:51.940Z,1.87
2022-09-17T16:30:22.799Z,1.10
2022-09-17T16:32:50.247Z,1.50
2022-09-17T16:35:19.832Z,1.93
2022-09-17T16:37:49.250Z,1.27
2022-09-17T16:40:16.833Z,1.40
2022-09-17T16:42:43.988Z,1.03
2022-09-17T16:45:11.512Z,1.30
2022-09-17T16:47:41.467Z,1.20
2022-09-17T16:50:11.208Z,0.80
2022-09-17T16:52:38.349Z,1.10
2022-09-17T16:55:08.436Z,1.63
2022-09-17T16:57:35.626Z,1.80
2022-09-17T17:00:04.489Z,4.27
2022-09-17T17:02:31.620Z,2.90
2022-09-17T17:05:00.114Z,1.53
2022-09-17T17:07:27.061Z,2.03
2022-09-17T17:09:54.037Z,1.70
2022-09-17T17:12:21.116Z,1.57
2022-09-17T17:14:50.010Z,0.83
2022-09-17T17:17:18.106Z,1.80
2022-09-17T17:19:46.371Z,0.90
2022-09-17T17:22:15.348Z,1.00
2022-09-17T17:24:42.442Z,0.80
2022-09-17T17:27:09.721Z,1.20
2022-09-17T17:29:37.012Z,2.03
2022-09-17T17:32:05.582Z,3.33
2022-09-17T17:34:32.511Z,1.80
2022-09-17T17:36:59.699Z,2.13
2022-09-17T17:39:27.934Z,2.10
2022-09-17T17:41:55.739Z,2.50
2022-09-17T17:44:22.778Z,2.70
2022-09-17T17:46:49.890Z,2.10
2022-09-17T17:49:16.979Z,3.00
2022-09-17T17:51:45.059Z,2.30
2022-09-17T17:54:12.187Z,1.30
2022-09-17T17:56:40.593Z,1.20
2022-09-17T17:59:07.642Z,1.70
2022-09-17T18:01:35.083Z,1.10
2022-09-17T18:04:05.260Z,0.90
2022-09-17T18:06:32.367Z,2.07
2022-09-17T18:09:00.038Z,2.20
2022-09-17T18:11:27.636Z,1.80
2022-09-17T18:13:57.511Z,2.50
2022-09-17T18:16:24.813Z,1.73
2022-09-17T18:18:51.756Z,2.70
2022-09-17T18:21:20.789Z,1.70
2022-09-17T18:23:49.217Z,1.83
2022-09-17T18:26:19.565Z,1.63
2022-09-17T18:28:47.084Z,1.77
2022-09-17T18:31:22.553Z,1.70
2022-09-17T18:33:50.322Z,1.20
2022-09-17T18:36:17.475Z,1.90
2022-09-17T18:38:44.576Z,1.27
2022-09-17T18:41:13.297Z,1.30
2022-09-17T18:43:41.013Z,1.30
2022-09-17T18:46:09.110Z,1.23
2022-09-17T18:48:37.629Z,1.30
2022-09-17T18:51:07.378Z,1.27
2022-09-17T18:53:37.630Z,2.70
2022-09-17T18:56:11.032Z,2.23
2022-09-17T18:58:38.099Z,1.40
2022-09-17T19:01:06.422Z,2.47
2022-09-17T19:03:34.662Z,2.50
2022-09-17T19:06:05.821Z,2.37
2022-09-17T19:08:33.348Z,1.60
2022-09-17T19:11:00.763Z,1.20
2022-09-17T19:13:34.712Z,1.70
2022-09-17T19:16:02.816Z,1.37
2022-09-17T19:18:30.086Z,1.40
2022-09-17T19:21:01.927Z,1.90
2022-09-17T19:23:31.042Z,1.47
2022-09-17T19:25:58.325Z,2.03
2022-09-17T19:28:25.356Z,1.57
2022-09-17T19:30:52.566Z,1.40
2022-09-17T19:33:19.482Z,1.87
2022-09-17T19:35:46.525Z,1.93
2022-09-17T19:38:14.750Z,1.90
2022-09-17T19:40:41.813Z,1.50
2022-09-17T19:43:08.785Z,1.70
2022-09-17T19:45:35.777Z,2.70
2022-09-17T19:48:03.144Z,1.83
2022-09-17T19:50:30.436Z,1.50
2022-09-17T19:52:57.336Z,1.50
2022-09-17T19:55:25.881Z,1.50
2022-09-17T19:57:52.779Z,1.40
2022-09-17T20:00:20.155Z,1.60
2022-09-17T20:02:47.166Z,1.60
2022-09-17T20:05:14.447Z,1.50
2022-09-17T20:07:42.733Z,1.60
2022-09-17T20:10:09.928Z,1.70
2022-09-17T20:12:38.185Z,1.60
2022-09-17T20:15:06.632Z,1.40
2022-09-17T20:17:33.526Z,1.50
2022-09-17T20:20:00.585Z,1.40
2022-09-17T20:22:27.552Z,1.60
2022-09-17T20:24:54.556Z,1.40
2022-09-17T20:27:21.516Z,1.50
2022-09-17T20:29:49.787Z,1.70
2022-09-17T20:32:16.775Z,1.90
2022-09-17T20:34:43.835Z,1.77
2022-09-17T20:37:13.650Z,1.70
2022-09-17T20:39:41.113Z,2.10
2022-09-17T20:42:08.156Z,1.40
2022-09-17T20:44:35.254Z,1.40
2022-09-17T20:47:04.070Z,1.60
2022-09-17T20:49:31.358Z,1.83
2022-09-17T20:51:58.284Z,1.53
2022-09-17T20:54:25.409Z,1.83
2022-09-17T20:56:52.415Z,1.63
2022-09-17T20:59:19.468Z,2.40
2022-09-17T21:01:49.603Z,1.80
2022-09-17T21:04:20.639Z,2.03
2022-09-17T21:06:52.620Z,2.00
2022-09-17T21:09:19.957Z,1.50
2022-09-17T21:11:48.691Z,2.03
2022-09-17T21:14:17.060Z,1.80
2022-09-17T21:16:44.953Z,1.70
2022-09-17T21:19:15.901Z,2.50
2022-09-17T21:21:44.605Z,1.87
2022-09-17T21:24:12.219Z,1.63
2022-09-17T21:26:39.531Z,1.77
2022-09-17T21:29:06.816Z,1.87
2022-09-17T21:31:37.126Z,2.20
2022-09-17T21:34:06.499Z,2.23
2022-09-17T21:36:36.650Z,2.17
2022-09-17T21:39:07.267Z,2.13
2022-09-17T21:41:37.603Z,2.40
2022-09-17T21:44:07.244Z,2.60
2022-09-17T21:46:38.060Z,2.00
2022-09-17T21:49:05.703Z,2.53
2022-09-17T21:51:37.115Z,2.20
2022-09-17T21:54:10.714Z,1.67
2022-09-17T21:56:38.458Z,1.90
2022-09-17T21:59:07.891Z,1.87
2022-09-17T22:01:40.724Z,2.17
2022-09-17T22:04:10.697Z,1.80
2022-09-17T22:06:40.197Z,1.93
2022-09-17T22:09:15.855Z,2.10
2022-09-17T22:11:42.744Z,2.40
2022-09-17T22:14:12.638Z,2.23
2022-09-17T22:16:42.735Z,1.93
2022-09-17T22:19:12.958Z,1.90
2022-09-17T22:21:42.395Z,1.50
2022-09-17T22:24:12.329Z,2.07
2022-09-17T22:26:45.888Z,1.80
2022-09-17T22:29:17.846Z,2.30
2022-09-17T22:31:45.912Z,1.80
2022-09-17T22:34:16.276Z,2.00
2022-09-17T22:36:43.585Z,2.07
2022-09-17T22:39:12.221Z,2.23
2022-09-17T22:41:45.757Z,2.17
2022-09-17T22:44:15.719Z,2.83
2022-09-17T22:46:43.398Z,1.80
2022-09-17T22:49:13.830Z,2.50
2022-09-17T22:51:41.777Z,2.40
2022-09-17T22:54:13.508Z,2.00
2022-09-17T22:56:44.957Z,2.00
2022-09-17T22:59:12.394Z,2.00
2022-09-17T23:01:41.172Z,2.83
2022-09-17T23:04:10.966Z,2.10
2022-09-17T23:06:40.005Z,2.00
2022-09-17T23:09:07.805Z,1.90
2022-09-17T23:11:42.834Z,2.30
2022-09-17T23:14:12.401Z,1.87
2022-09-17T23:16:42.685Z,2.03
2022-09-17T23:19:09.939Z,2.03
2022-09-17T23:21:38.098Z,2.37
2022-09-17T23:24:09.137Z,2.30
2022-09-17T23:26:36.235Z,2.13
2022-09-17T23:29:07.149Z,2.37
2022-09-17T23:31:35.248Z,2.10
2022-09-17T23:34:03.975Z,2.37
2022-09-17T23:36:34.017Z,1.97
2022-09-17T23:39:04.222Z,1.93
2022-09-17T23:41:33.099Z,2.20
2022-09-17T23:44:02.690Z,3.30
2022-09-17T23:46:33.965Z,1.60
2022-09-17T23:49:06.680Z,2.23
2022-09-17T23:51:36.221Z,2.70
2022-09-17T23:54:05.362Z,2.20
2022-09-17T23:56:32.879Z,2.40
2022-09-17T23:59:03.960Z,2.20
